sensor_id;sensor_type;location;lat;lon;timestamp;pressure;altitude;pressure_sealevel;temperature;humidity
69796;BME280;57073;45.650;9.612;2023-01-25T00:03:57;100448.81;;;8.70;64.93
69796;BME280;57073;45.650;9.612;2023-01-25T00:13:57;100447.44;;;8.43;66.94
69796;BME280;57073;45.650;9.612;2023-01-25T00:23:58;100433.97;;;8.59;67.13
69796;BME280;57073;45.650;9.612;2023-01-25T00:44:23;100441.09;;;8.36;68.19
69796;BME280;57073;45.650;9.612;2023-01-25T00:54:24;100456.50;;;8.25;69.13
69796;BME280;57073;45.650;9.612;2023-01-25T01:04:24;100464.59;;;8.09;70.08
69796;BME280;57073;45.650;9.612;2023-01-25T01:14:27;100461.47;;;7.89;71.26
69796;BME280;57073;45.650;9.612;2023-01-25T01:24:27;100437.19;;;8.07;70.67
69796;BME280;57073;45.650;9.612;2023-01-25T01:34:27;100445.31;;;8.22;70.83
69796;BME280;57073;45.650;9.612;2023-01-25T01:44:51;100445.31;;;7.74;73.08
69796;BME280;57073;45.650;9.612;2023-01-25T01:54:56;100449.78;;;7.74;73.19
69796;BME280;57073;45.650;9.612;2023-01-25T02:05:00;100452.47;;;7.82;73.09
69796;BME280;57073;45.650;9.612;2023-01-25T02:15:04;100442.44;;;7.84;72.31
69796;BME280;57073;45.650;9.612;2023-01-25T02:25:09;100446.78;;;7.77;74.83
69796;BME280;57073;45.650;9.612;2023-01-25T02:35:24;100444.44;;;7.74;75.05
69796;BME280;57073;45.650;9.612;2023-01-25T02:45:34;100429.78;;;7.78;73.62
69796;BME280;57073;45.650;9.612;2023-01-25T02:55:34;100424.59;;;7.76;74.75
69796;BME280;57073;45.650;9.612;2023-01-25T03:05:35;100420.34;;;7.90;74.15
69796;BME280;57073;45.650;9.612;2023-01-25T03:15:35;100409.88;;;7.89;74.99
69796;BME280;57073;45.650;9.612;2023-01-25T03:25:35;100405.31;;;7.97;74.86
69796;BME280;57073;45.650;9.612;2023-01-25T03:35:36;100398.78;;;8.00;74.11
69796;BME280;57073;45.650;9.612;2023-01-25T03:45:36;100389.63;;;7.94;73.09
69796;BME280;57073;45.650;9.612;2023-01-25T03:55:36;100395.16;;;7.84;74.84
69796;BME280;57073;45.650;9.612;2023-01-25T04:05:37;100375.13;;;7.89;75.33
69796;BME280;57073;45.650;9.612;2023-01-25T04:15:37;100343.66;;;7.99;73.01
69796;BME280;57073;45.650;9.612;2023-01-25T04:25:38;100334.72;;;7.75;73.85
69796;BME280;57073;45.650;9.612;2023-01-25T04:35:38;100329.72;;;7.80;74.08
69796;BME280;57073;45.650;9.612;2023-01-25T04:45:39;100331.97;;;8.00;73.88
69796;BME280;57073;45.650;9.612;2023-01-25T04:55:44;100326.13;;;8.28;71.69
69796;BME280;57073;45.650;9.612;2023-01-25T05:05:46;100332.25;;;8.36;72.18
69796;BME280;57073;45.650;9.612;2023-01-25T05:15:46;100340.28;;;8.36;71.67
69796;BME280;57073;45.650;9.612;2023-01-25T05:25:46;100341.03;;;8.53;70.90
69796;BME280;57073;45.650;9.612;2023-01-25T05:36:06;100341.94;;;8.37;70.98
69796;BME280;57073;45.650;9.612;2023-01-25T05:46:07;100345.16;;;8.33;71.04
69796;BME280;57073;45.650;9.612;2023-01-25T05:56:08;100339.66;;;8.26;71.16
69796;BME280;57073;45.650;9.612;2023-01-25T06:06:09;100343.25;;;8.10;71.74
69796;BME280;57073;45.650;9.612;2023-01-25T06:16:10;100329.59;;;8.05;71.73
69796;BME280;57073;45.650;9.612;2023-01-25T06:26:13;100329.78;;;8.03;70.96
69796;BME280;57073;45.650;9.612;2023-01-25T06:36:15;100320.22;;;8.09;71.20
69796;BME280;57073;45.650;9.612;2023-01-25T06:46:16;100303.69;;;7.74;71.99
69796;BME280;57073;45.650;9.612;2023-01-25T06:56:18;100298.38;;;7.66;70.49
69796;BME280;57073;45.650;9.612;2023-01-25T07:06:21;100294.63;;;7.36;69.06
69796;BME280;57073;45.650;9.612;2023-01-25T07:16:21;100281.22;;;6.80;68.73
69796;BME280;57073;45.650;9.612;2023-01-25T07:26:23;100264.72;;;6.84;68.09
69796;BME280;57073;45.650;9.612;2023-01-25T07:36:24;100267.69;;;6.98;65.60
69796;BME280;57073;45.650;9.612;2023-01-25T07:46:25;100274.88;;;6.97;65.73
69796;BME280;57073;45.650;9.612;2023-01-25T07:56:28;100273.03;;;6.98;64.46
69796;BME280;57073;45.650;9.612;2023-01-25T08:06:31;100277.00;;;7.18;64.99
69796;BME280;57073;45.650;9.612;2023-01-25T08:16:37;100271.78;;;7.25;65.58
69796;BME280;57073;45.650;9.612;2023-01-25T08:26:38;100269.75;;;7.43;64.69
69796;BME280;57073;45.650;9.612;2023-01-25T08:36:38;100272.66;;;7.65;64.80
69796;BME280;57073;45.650;9.612;2023-01-25T08:46:39;100258.75;;;8.01;63.72
69796;BME280;57073;45.650;9.612;2023-01-25T08:56:40;100259.31;;;8.19;60.05
69796;BME280;57073;45.650;9.612;2023-01-25T09:06:40;100263.53;;;8.45;59.49
69796;BME280;57073;45.650;9.612;2023-01-25T09:16:41;100253.75;;;8.52;58.39
69796;BME280;57073;45.650;9.612;2023-01-25T09:26:41;100244.94;;;8.67;59.38
69796;BME280;57073;45.650;9.612;2023-01-25T09:36:42;100244.88;;;8.90;58.93
69796;BME280;57073;45.650;9.612;2023-01-25T09:46:45;100233.28;;;8.97;58.03
69796;BME280;57073;45.650;9.612;2023-01-25T09:56:50;100235.78;;;9.14;58.96
69796;BME280;57073;45.650;9.612;2023-01-25T10:06:53;100238.50;;;9.35;58.59
69796;BME280;57073;45.650;9.612;2023-01-25T10:17:04;100242.66;;;8.93;61.32
69796;BME280;57073;45.650;9.612;2023-01-25T10:27:19;100228.63;;;9.06;62.50
69796;BME280;57073;45.650;9.612;2023-01-25T10:37:27;100219.59;;;9.07;61.89
69796;BME280;57073;45.650;9.612;2023-01-25T10:47:31;100208.19;;;9.50;60.21
69796;BME280;57073;45.650;9.612;2023-01-25T10:57:34;100194.31;;;9.61;59.31
69796;BME280;57073;45.650;9.612;2023-01-25T11:07:35;100180.19;;;9.89;59.40
69796;BME280;57073;45.650;9.612;2023-01-25T11:17:35;100168.28;;;9.76;60.00
69796;BME280;57073;45.650;9.612;2023-01-25T11:27:36;100146.94;;;10.05;58.55
69796;BME280;57073;45.650;9.612;2023-01-25T11:58:23;100074.09;;;9.79;57.35
69796;BME280;57073;45.650;9.612;2023-01-25T12:39:45;100000.50;;;9.82;57.20
69796;BME280;57073;45.650;9.612;2023-01-25T12:50:11;99985.72;;;9.93;58.33
69796;BME280;57073;45.650;9.612;2023-01-25T13:00:06;99964.91;;;9.95;57.81
69796;BME280;57073;45.650;9.612;2023-01-25T13:10:17;99962.91;;;10.04;57.10
69796;BME280;57073;45.650;9.612;2023-01-25T13:30:51;99944.06;;;9.90;56.28
69796;BME280;57073;45.650;9.612;2023-01-25T13:41:10;99938.28;;;9.87;55.70
69796;BME280;57073;45.650;9.612;2023-01-25T13:51:13;99935.47;;;9.73;56.09
69796;BME280;57073;45.650;9.612;2023-01-25T14:01:18;99927.69;;;9.78;56.68
69796;BME280;57073;45.650;9.612;2023-01-25T14:11:26;99926.63;;;9.73;56.31
69796;BME280;57073;45.650;9.612;2023-01-25T14:21:27;99912.00;;;9.75;56.22
69796;BME280;57073;45.650;9.612;2023-01-25T14:31:34;99917.50;;;9.67;57.30
69796;BME280;57073;45.650;9.612;2023-01-25T14:41:36;99905.72;;;9.62;57.84
69796;BME280;57073;45.650;9.612;2023-01-25T14:51:44;99897.88;;;9.60;58.02
69796;BME280;57073;45.650;9.612;2023-01-25T15:01:48;99895.00;;;9.62;57.60
69796;BME280;57073;45.650;9.612;2023-01-25T15:11:58;99888.41;;;9.64;57.66
69796;BME280;57073;45.650;9.612;2023-01-25T15:21:59;99887.22;;;9.73;56.78
69796;BME280;57073;45.650;9.612;2023-01-25T15:31:59;99886.84;;;9.76;57.54
69796;BME280;57073;45.650;9.612;2023-01-25T15:42:00;99881.25;;;9.71;57.39
69796;BME280;57073;45.650;9.612;2023-01-25T15:52:00;99883.94;;;9.71;57.35
69796;BME280;57073;45.650;9.612;2023-01-25T16:02:01;99878.94;;;9.62;57.83
69796;BME280;57073;45.650;9.612;2023-01-25T16:12:01;99876.38;;;9.47;59.21
69796;BME280;57073;45.650;9.612;2023-01-25T16:22:02;99878.41;;;9.45;59.29
69796;BME280;57073;45.650;9.612;2023-01-25T16:32:02;99869.78;;;9.21;60.06
69796;BME280;57073;45.650;9.612;2023-01-25T16:42:02;99864.22;;;9.23;61.29
69796;BME280;57073;45.650;9.612;2023-01-25T16:52:03;99854.34;;;9.23;60.97
69796;BME280;57073;45.650;9.612;2023-01-25T17:02:03;99846.94;;;9.25;61.25
69796;BME280;57073;45.650;9.612;2023-01-25T17:12:04;99831.25;;;9.22;61.47
69796;BME280;57073;45.650;9.612;2023-01-25T17:22:04;99814.66;;;9.05;61.87
69796;BME280;57073;45.650;9.612;2023-01-25T17:32:05;99810.41;;;8.89;62.30
69796;BME280;57073;45.650;9.612;2023-01-25T17:42:05;99812.41;;;8.80;62.12
69796;BME280;57073;45.650;9.612;2023-01-25T17:52:06;99796.16;;;8.60;63.22
69796;BME280;57073;45.650;9.612;2023-01-25T18:02:08;99791.38;;;8.34;63.77
69796;BME280;57073;45.650;9.612;2023-01-25T18:12:10;99791.38;;;8.34;63.58
69796;BME280;57073;45.650;9.612;2023-01-25T18:22:11;99788.81;;;8.26;63.98
69796;BME280;57073;45.650;9.612;2023-01-25T18:32:13;99786.91;;;8.20;63.81
69796;BME280;57073;45.650;9.612;2023-01-25T18:42:14;99780.72;;;7.98;63.49
69796;BME280;57073;45.650;9.612;2023-01-25T18:52:16;99771.78;;;7.76;65.04
69796;BME280;57073;45.650;9.612;2023-01-25T19:02:17;99757.97;;;7.72;64.81
69796;BME280;57073;45.650;9.612;2023-01-25T19:12:17;99753.59;;;7.49;65.30
69796;BME280;57073;45.650;9.612;2023-01-25T19:22:18;99737.91;;;7.61;65.24
69796;BME280;57073;45.650;9.612;2023-01-25T19:32:18;99732.56;;;7.61;64.71
69796;BME280;57073;45.650;9.612;2023-01-25T19:42:18;99711.41;;;7.60;64.22
69796;BME280;57073;45.650;9.612;2023-01-25T19:52:19;99721.47;;;7.58;64.14
69796;BME280;57073;45.650;9.612;2023-01-25T20:02:20;99712.06;;;7.62;64.41
69796;BME280;57073;45.650;9.612;2023-01-25T20:12:20;99707.75;;;7.46;65.21
69796;BME280;57073;45.650;9.612;2023-01-25T20:22:20;99695.69;;;7.35;65.04
69796;BME280;57073;45.650;9.612;2023-01-25T20:32:21;99678.59;;;7.29;65.01
69796;BME280;57073;45.650;9.612;2023-01-25T20:42:21;99680.63;;;6.98;65.22
69796;BME280;57073;45.650;9.612;2023-01-25T20:52:22;99664.91;;;6.88;65.23
69796;BME280;57073;45.650;9.612;2023-01-25T21:02:22;99660.09;;;6.68;66.26
69796;BME280;57073;45.650;9.612;2023-01-25T21:12:22;99644.19;;;6.60;66.82
69796;BME280;57073;45.650;9.612;2023-01-25T21:22:23;99628.56;;;6.57;65.93
69796;BME280;57073;45.650;9.612;2023-01-25T21:32:23;99627.44;;;6.37;66.90
69796;BME280;57073;45.650;9.612;2023-01-25T21:42:24;99614.66;;;6.32;66.78
69796;BME280;57073;45.650;9.612;2023-01-25T21:52:25;99607.56;;;6.24;67.42
69796;BME280;57073;45.650;9.612;2023-01-25T22:02:25;99594.56;;;6.06;67.40
69796;BME280;57073;45.650;9.612;2023-01-25T22:12:26;99589.59;;;5.80;66.89
69796;BME280;57073;45.650;9.612;2023-01-25T22:22:26;99578.84;;;5.97;67.68
69796;BME280;57073;45.650;9.612;2023-01-25T22:32:26;99561.03;;;5.89;66.73
69796;BME280;57073;45.650;9.612;2023-01-25T22:42:27;99559.41;;;5.88;67.76
69796;BME280;57073;45.650;9.612;2023-01-25T22:52:27;99549.53;;;5.73;67.47
69796;BME280;57073;45.650;9.612;2023-01-25T23:02:27;99529.50;;;5.63;67.29
69796;BME280;57073;45.650;9.612;2023-01-25T23:12:28;99519.47;;;5.65;67.58
69796;BME280;57073;45.650;9.612;2023-01-25T23:22:28;99514.00;;;5.66;67.37
69796;BME280;57073;45.650;9.612;2023-01-25T23:32:28;99495.63;;;5.71;68.14
69796;BME280;57073;45.650;9.612;2023-01-25T23:42:29;99496.31;;;5.88;68.46
69796;BME280;57073;45.650;9.612;2023-01-25T23:52:29;99478.28;;;5.75;67.89
